createdAt,value
2022-10-30T00:03:17.370Z,14.70
2022-10-30T00:08:14.285Z,14.70
2022-10-30T00:40:17.280Z,14.60
2022-10-30T00:45:14.279Z,14.50
2022-10-30T00:47:58.444Z,14.50
2022-10-30T01:12:52.007Z,14.70
2022-10-30T01:18:02.586Z,14.70
2022-10-30T01:23:57.641Z,14.60
2022-10-30T01:26:49.584Z,14.70
2022-10-30T01:29:47.348Z,14.30
2022-10-30T01:32:38.893Z,14.60
2022-10-30T01:35:28.578Z,14.60
2022-10-30T01:38:00.121Z,14.50
2022-10-30T01:45:55.509Z,14.60
2022-10-30T01:53:55.364Z,14.80
2022-10-30T01:56:33.607Z,14.60
2022-10-30T02:06:37.530Z,14.70
2022-10-30T02:14:05.234Z,14.60
2022-10-30T02:16:35.735Z,14.60
2022-10-30T02:51:04.087Z,14.50
2022-10-30T02:56:08.138Z,14.40
2022-10-30T03:01:19.104Z,14.50
2022-10-30T03:06:16.693Z,14.40
2022-10-30T03:16:16.010Z,14.50
2022-10-30T03:21:14.157Z,14.50
2022-10-30T03:48:28.643Z,14.60
2022-10-30T03:50:59.230Z,14.50
2022-10-30T03:56:01.662Z,14.60
2022-10-30T04:38:19.014Z,14.00
2022-10-30T04:48:18.068Z,13.90
2022-10-30T05:11:05.993Z,13.70
2022-10-30T05:30:53.622Z,13.60
2022-10-30T06:01:06.004Z,13.50
2022-10-30T06:42:51.280Z,13.10
2022-10-30T07:16:35.644Z,13.10
2022-10-30T08:34:12.630Z,14.20
2022-10-30T08:36:54.044Z,14.30
2022-10-30T08:41:51.287Z,14.50
2022-10-30T09:12:29.019Z,15.00
2022-10-30T09:30:14.846Z,15.30
2022-10-30T09:33:02.892Z,15.40
2022-10-30T09:41:27.171Z,15.40
2022-10-30T09:51:53.613Z,15.50
2022-10-30T09:54:35.502Z,15.40
2022-10-30T09:57:21.206Z,15.40
2022-10-30T10:02:42.342Z,16.30
2022-10-30T10:05:21.288Z,15.50
2022-10-30T10:08:12.287Z,15.60
2022-10-30T10:11:08.793Z,15.60
2022-10-30T10:16:20.850Z,15.50
2022-10-30T10:19:17.718Z,15.70
2022-10-30T10:21:49.730Z,15.70
2022-10-30T10:24:24.897Z,15.70
2022-10-30T10:26:59.394Z,16.10
2022-10-30T10:32:07.041Z,15.50
2022-10-30T10:34:54.889Z,15.80
2022-10-30T10:40:16.594Z,16.20
2022-10-30T10:43:09.107Z,15.90
2022-10-30T10:45:55.887Z,16.00
2022-10-30T10:51:04.500Z,16.00
2022-10-30T10:53:51.981Z,16.00
2022-10-30T10:56:21.320Z,16.00
2022-10-30T10:58:59.455Z,15.60
2022-10-30T11:04:30.032Z,16.00
2022-10-30T11:06:58.642Z,16.00
2022-10-30T11:09:30.214Z,16.10
2022-10-30T11:14:29.403Z,16.10
2022-10-30T11:21:57.728Z,16.50
2022-10-30T11:24:34.500Z,16.20
2022-10-30T11:27:23.015Z,16.10
2022-10-30T11:37:33.070Z,16.60
2022-10-30T11:40:23.732Z,16.30
2022-10-30T11:43:02.753Z,16.20
2022-10-30T11:45:33.082Z,16.20
2022-10-30T11:48:02.891Z,16.30
2022-10-30T11:50:32.530Z,16.30
2022-10-30T11:53:03.187Z,16.30
2022-10-30T11:55:39.920Z,16.30
2022-10-30T11:58:09.956Z,16.30
2022-10-30T12:00:40.932Z,16.30
2022-10-30T12:03:34.140Z,16.40
2022-10-30T12:06:18.084Z,16.50
2022-10-30T12:09:19.853Z,16.50
2022-10-30T12:16:50.111Z,16.50
2022-10-30T12:19:19.687Z,16.70
2022-10-30T12:21:53.880Z,16.50
2022-10-30T12:24:36.824Z,16.50
2022-10-30T12:27:06.799Z,16.50
2022-10-30T12:32:55.759Z,16.50
2022-10-30T12:38:03.260Z,16.60
2022-10-30T12:40:36.560Z,17.80
2022-10-30T12:43:17.039Z,16.50
2022-10-30T12:48:33.866Z,16.60
2022-10-30T12:51:19.760Z,16.50
2022-10-30T12:54:22.131Z,16.50
2022-10-30T12:56:57.182Z,16.60
2022-10-30T13:04:49.548Z,16.70
2022-10-30T13:10:06.680Z,16.70
2022-10-30T13:12:38.143Z,16.70
2022-10-30T13:15:10.047Z,16.70
2022-10-30T13:20:14.572Z,16.80
2022-10-30T13:23:02.933Z,17.10
2022-10-30T13:28:23.451Z,16.90
2022-10-30T13:31:17.974Z,16.90
2022-10-30T13:34:05.209Z,16.80
2022-10-30T13:36:47.722Z,16.90
2022-10-30T13:41:47.780Z,16.90
2022-10-30T13:47:25.579Z,16.90
2022-10-30T13:50:04.335Z,17.00
2022-10-30T13:52:33.825Z,17.00
2022-10-30T13:55:07.615Z,17.00
2022-10-30T14:00:14.431Z,17.00
2022-10-30T14:03:11.523Z,16.60
2022-10-30T14:06:12.398Z,17.10
2022-10-30T14:11:11.282Z,17.00
2022-10-30T14:13:46.058Z,16.70
2022-10-30T14:16:43.717Z,17.10
2022-10-30T14:19:15.228Z,17.10
2022-10-30T14:21:53.891Z,17.10
2022-10-30T14:27:04.663Z,17.30
2022-10-30T14:29:42.777Z,17.10
2022-10-30T14:32:15.862Z,17.00
2022-10-30T14:37:11.936Z,17.10
2022-10-30T14:39:40.079Z,17.00
2022-10-30T14:42:11.305Z,17.00
2022-10-30T14:47:30.424Z,17.10
2022-10-30T14:52:30.507Z,16.70
2022-10-30T14:55:36.286Z,17.20
2022-10-30T15:03:15.922Z,17.10
2022-10-30T15:08:19.323Z,17.10
2022-10-30T15:11:14.061Z,17.10
2022-10-30T15:13:52.943Z,17.10
2022-10-30T15:16:22.677Z,17.10
2022-10-30T15:18:59.206Z,17.10
2022-10-30T15:24:01.532Z,17.10
2022-10-30T15:31:29.997Z,17.20
2022-10-30T15:36:34.829Z,17.20
2022-10-30T15:39:14.538Z,17.10
2022-10-30T15:41:58.177Z,17.10
2022-10-30T15:44:30.602Z,17.10
2022-10-30T15:47:01.044Z,16.90
2022-10-30T15:49:35.067Z,17.10
2022-10-30T15:52:15.698Z,17.10
2022-10-30T15:57:57.347Z,17.10
2022-10-30T16:00:31.909Z,17.00
2022-10-30T16:03:03.533Z,17.10
2022-10-30T16:08:00.464Z,17.10
2022-10-30T16:10:32.844Z,17.20
2022-10-30T16:15:39.523Z,17.30
2022-10-30T16:23:05.539Z,17.20
2022-10-30T16:28:05.409Z,17.10
2022-10-30T16:30:34.328Z,17.10
2022-10-30T16:40:28.522Z,16.90
2022-10-30T16:43:03.425Z,16.80
2022-10-30T16:50:38.153Z,16.70
2022-10-30T16:53:07.238Z,16.90
2022-10-30T16:55:38.179Z,16.30
2022-10-30T17:00:36.618Z,16.50
2022-10-30T17:03:10.369Z,16.40
2022-10-30T17:10:42.001Z,16.20
2022-10-30T17:13:34.300Z,16.30
2022-10-30T17:19:02.115Z,16.30
2022-10-30T17:21:41.101Z,16.20
2022-10-30T17:27:04.671Z,16.10
2022-10-30T17:29:52.650Z,16.10
2022-10-30T17:47:16.198Z,16.00
2022-10-30T17:52:13.863Z,15.90
2022-10-30T17:54:44.531Z,15.90
2022-10-30T17:57:13.355Z,15.80
2022-10-30T18:02:20.551Z,15.90
2022-10-30T18:04:49.245Z,15.70
2022-10-30T18:07:17.923Z,15.80
2022-10-30T18:12:15.691Z,15.80
2022-10-30T18:22:10.767Z,15.80
2022-10-30T18:41:59.409Z,15.70
2022-10-30T19:14:15.502Z,15.70
2022-10-30T19:24:13.671Z,15.70
2022-10-30T19:51:28.969Z,15.60
2022-10-30T20:06:14.561Z,15.40
2022-10-30T20:16:05.829Z,15.30
2022-10-30T20:18:35.628Z,15.30
2022-10-30T20:26:29.170Z,15.30
2022-10-30T20:51:19.082Z,15.10
2022-10-30T20:58:42.161Z,15.10
2022-10-30T21:16:07.092Z,15.10
2022-10-30T21:26:02.888Z,15.00
2022-10-30T21:31:02.438Z,14.70
2022-10-30T21:36:12.344Z,15.00
2022-10-30T21:41:10.922Z,14.90
2022-10-30T21:51:13.087Z,14.70
2022-10-30T21:56:10.621Z,14.70
2022-10-30T22:01:06.614Z,14.70
2022-10-30T22:11:09.046Z,14.70
2022-10-30T22:13:36.711Z,14.70
2022-10-30T22:16:05.200Z,14.80
2022-10-30T22:21:09.024Z,14.70
2022-10-30T22:26:07.914Z,14.70
2022-10-30T22:28:35.924Z,13.00
2022-10-30T22:33:36.192Z,14.70
2022-10-30T22:38:35.053Z,12.40
2022-10-30T22:41:14.546Z,14.60
2022-10-30T22:43:42.992Z,14.60
2022-10-30T22:48:38.484Z,14.70
2022-10-30T22:51:13.340Z,14.60
2022-10-30T22:56:16.573Z,14.60
2022-10-30T23:06:08.044Z,14.50
2022-10-30T23:16:02.841Z,14.90
